Aeroporto :
LOGIN :

Iscrizione | Disclaimer

   EN    FR    IT 

 










Sommario :    VFR   VFR Marginale   IFR   IFR Intensivo   IFR Molto Intensivo
Visibilità : 
Base nubi : 
>= 8 km
>= 3000ft
5 / 8 km
1000 / 3000 ft
1500m / 5 km
500 / 1000 ft
800 / 1500m
200 / 500 ft
< 800m
< 200 ft
Simboli :   Temporali  Nebbia  Neve Forte  Precipitazioni Forti  Vento > 20 kt
SIGMETs :   Varie  Temporali  Ghiacco  Turbolenza  Onda orograficha  Ceneri Vulcaniche






- Altitudine del aeroporto : 135 ft
- Codice IATA : BOJ


LBBG - Burgas

ULTIMO METAR :
  • 171630Z 11008KT CAVOK 05/04 Q1025 R99/19//95 NOSIG

METARs OBSOLETI :
  • 171600Z 11009KT CAVOK 06/04 Q1026 R99/19//95 NOSIG
  • 171530Z 12010KT CAVOK 07/05 Q1026 R99/19//95 NOSIG
  • 171500Z 12010KT CAVOK 08/05 Q1026 R99/19//95 NOSIG
  • 171430Z 13012KT CAVOK 08/04 Q1026 R99/19//95 NOSIG
  • 171400Z 13012KT CAVOK 09/04 Q1026 R99/19//95 NOSIG

TAF TAF LBBG
Valido dal 17 a 12 ore il 18 a 12 ore UTC


171100Z 1712/1812 11010KT 7000 NSC
TEMPO 1714/1720 SCT010
BECMG 1720/1722 VRB04KT 3000 BR SCT005 BKN010
TEMPO 1802/1808 0800 FZFG BKN002 OVC004
BECMG 1809/1811 7000 SCT010



MetMap, La meteo Aeronautica in un colpo d'occhio ! - Copyright ORBIFLY Dicembre 2007 - Disclaimer

ORBIFLY MET'MAP TEAM :

Programmazione e sviluppo : Alexandra Zaïnal
Concezione : Baudouin d'Aumeries
Aiuto per la programmazione : Marc-Olivier Méhu
Supporto tecnico e logistico : Manuel Goepfert
Aiuto per la traduzione : Arnaldo La Scala

Contatto : metmap@orbifly.com




FONTI E CREDITI :

   NOAA